Terminal Aerodrome Forecast
Issued by NWS

Home | Current Version | Previous Version | Graphics & Text | Print | Product List | Glossary On
Versions: 1 2 3 4 5 6 7 8 9 10 11 12 13 14 15
000
FTUS43 KICT 261140
TAFSLN
TAF
KSLN 261140Z 2612/2712 33011KT P6SM SKC
     FM262100 24014G20KT P6SM SCT100
     FM270300 03017G25KT P6SM SCT025 BKN050=

USA.gov is the U.S. government's official web portal to all federal, state and local government web resources and services.